Time;durP1;ratioP1;P1;durP2;ratioP2;P2;SDS_P1;SDS_P2;PMS_P1;PMS_P2;Temp;Humidity;BMP_temperature;BMP_pressure;BME280_temperature;BME280_humidity;BME280_pressure;Samples;Min_cycle;Max_cycle;Signal;HPM_P1;HPM_P2
2021/05/28 00:00:34;;;;;;;;;13.75;12.50;;;;;17.98;49.21;101578.78;5086657;27;46985;-76
2021/05/28 00:03:00;;;;;;;;;14.00;13.75;;;;;17.94;48.81;101587.91;5087530;27;45490;-76
2021/05/28 00:05:26;;;;;;;;;13.50;13.25;;;;;17.89;49.45;101580.00;5094355;27;45533;-75
2021/05/28 00:07:51;;;;;;;;;11.25;11.00;;;;;17.85;49.14;101575.69;5091772;27;45885;-76
2021/05/28 00:10:17;;;;;;;;;14.75;14.00;;;;;17.82;49.31;101583.88;5090309;27;45452;-76
2021/05/28 00:12:42;;;;;;;;;14.75;12.75;;;;;17.79;49.60;101583.13;5089373;27;49677;-76
2021/05/28 00:15:09;;;;;;;;;12.00;12.00;;;;;17.76;49.69;101589.44;5108666;27;45676;-76
2021/05/28 00:17:35;;;;;;;;;13.25;13.25;;;;;17.74;49.63;101588.63;5090100;27;46140;-76
2021/05/28 00:20:00;;;;;;;;;12.25;10.50;;;;;17.74;49.53;101590.44;5091795;27;45456;-75
2021/05/28 00:22:26;;;;;;;;;11.75;11.50;;;;;17.70;49.78;101592.38;5084062;27;45420;-76
2021/05/28 00:24:52;;;;;;;;;13.25;12.00;;;;;17.68;49.82;101601.41;5080227;27;45502;-76
2021/05/28 00:27:17;;;;;;;;;11.00;9.50;;;;;17.65;50.17;101594.31;5084176;27;46624;-75
2021/05/28 00:29:43;;;;;;;;;12.00;9.00;;;;;17.61;50.11;101590.88;5093968;27;46189;-76
2021/05/28 00:32:08;;;;;;;;;10.50;10.50;;;;;17.59;50.18;101592.75;5087628;27;45402;-76
2021/05/28 00:34:34;;;;;;;;;10.50;10.50;;;;;17.60;50.35;101596.31;5084386;27;45474;-76
2021/05/28 00:36:59;;;;;;;;;13.25;11.25;;;;;17.59;50.51;101589.19;5087512;27;47305;-76
2021/05/28 00:39:24;;;;;;;;;10.50;9.00;;;;;17.58;50.28;101596.34;5091358;27;45467;-76
2021/05/28 00:41:50;;;;;;;;;10.00;10.00;;;;;17.55;50.54;101587.56;5083538;27;45507;-76
2021/05/28 00:44:23;;;;;;;;;12.50;12.50;;;;;17.57;50.33;101594.59;5084375;27;46118;-76
2021/05/28 00:46:49;;;;;;;;;9.00;9.00;;;;;17.56;50.67;101598.22;5091947;27;47603;-76
2021/05/28 00:49:14;;;;;;;;;11.50;11.50;;;;;17.56;50.60;101600.03;5087805;27;45509;-76
2021/05/28 00:51:39;;;;;;;;;14.50;13.00;;;;;17.54;50.75;101591.16;5093106;27;45535;-75
2021/05/28 00:54:05;;;;;;;;;10.75;10.00;;;;;17.52;50.91;101598.38;5089028;27;45690;-75
2021/05/28 00:56:31;;;;;;;;;11.00;11.00;;;;;17.50;51.21;101602.94;5082582;27;45589;-75
2021/05/28 00:59:02;;;;;;;;;11.00;11.00;;;;;17.46;51.08;101603.97;5082739;27;45736;-75
2021/05/28 01:01:28;;;;;;;;;10.75;10.75;;;;;17.43;50.90;101607.66;5089839;27;45508;-74
2021/05/28 01:03:53;;;;;;;;;12.00;12.00;;;;;17.40;51.16;101607.75;5086322;27;45491;-75
2021/05/28 01:06:19;;;;;;;;;11.50;10.50;;;;;17.37;51.40;101607.84;5083552;27;47394;-74
2021/05/28 01:08:44;;;;;;;;;9.00;9.00;;;;;17.34;51.27;101608.84;5087209;27;45547;-75
2021/05/28 01:11:10;;;;;;;;;13.25;13.25;;;;;17.32;51.21;101605.34;5090463;27;45420;-75
2021/05/28 01:13:36;;;;;;;;;13.50;12.50;;;;;17.28;51.61;101606.41;5082826;27;45496;-75
2021/05/28 01:16:01;;;;;;;;;11.00;11.00;;;;;17.27;51.43;101604.63;5084201;27;45902;-74
2021/05/28 01:18:27;;;;;;;;;10.75;10.75;;;;;17.27;51.66;101611.78;5081141;27;46096;-77
2021/05/28 01:20:52;;;;;;;;;13.00;12.00;;;;;17.25;51.82;101614.53;5102255;27;45480;-75
2021/05/28 01:23:18;;;;;;;;;12.75;11.75;;;;;17.23;51.49;101608.34;5088647;27;47578;-76
2021/05/28 01:25:44;;;;;;;;;12.25;12.25;;;;;17.20;51.52;101608.47;5082937;27;48816;-74
2021/05/28 01:28:10;;;;;;;;;11.75;11.75;;;;;17.19;51.99;101613.88;5085837;27;45638;-74
2021/05/28 01:30:36;;;;;;;;;14.50;11.50;;;;;17.16;51.78;101612.19;5086300;27;45549;-75
2021/05/28 01:33:02;;;;;;;;;12.50;11.00;;;;;17.16;52.04;101609.50;5080495;27;45540;-75
2021/05/28 01:35:27;;;;;;;;;14.00;14.00;;;;;17.14;52.36;101616.72;5082368;27;48505;-75
2021/05/28 01:37:53;;;;;;;;;13.25;13.25;;;;;17.12;52.14;101615.88;5089592;27;45948;-75
2021/05/28 01:40:20;;;;;;;;;17.00;12.75;;;;;17.09;52.24;101613.31;5082233;27;45507;-75
2021/05/28 01:42:46;;;;;;;;;14.00;13.25;;;;;17.10;52.43;101614.19;5084750;27;45419;-74
2021/05/28 01:45:12;;;;;;;;;12.00;12.00;;;;;17.09;52.05;101610.63;5091395;27;45539;-74
2021/05/28 01:47:38;;;;;;;;;15.25;11.75;;;;;17.08;52.46;101608.88;5092341;27;45458;-75
2021/05/28 01:50:05;;;;;;;;;15.00;14.75;;;;;17.05;52.46;101598.28;5090716;27;45437;-75
2021/05/28 01:52:30;;;;;;;;;12.75;12.50;;;;;17.00;52.15;101603.78;5079314;27;45915;-75
2021/05/28 01:54:56;;;;;;;;;14.50;13.00;;;;;16.99;52.66;101615.44;5082012;27;46349;-76
2021/05/28 01:57:21;;;;;;;;;12.25;12.25;;;;;16.96;52.75;101615.53;5091281;27;46327;-74
2021/05/28 01:59:47;;;;;;;;;15.25;14.75;;;;;16.91;52.60;101613.97;5092103;27;45483;-75
2021/05/28 02:02:13;;;;;;;;;13.25;13.25;;;;;16.87;52.92;101614.97;5081416;27;45600;-75
2021/05/28 02:04:40;;;;;;;;;15.00;13.50;;;;;16.85;52.93;101622.19;5085766;27;46129;-76
2021/05/28 02:07:06;;;;;;;;;14.00;14.00;;;;;16.82;52.78;101615.13;5078545;27;45705;-75
2021/05/28 02:09:32;;;;;;;;;15.00;13.25;;;;;16.81;53.03;101623.22;5084196;27;45633;-75
2021/05/28 02:11:58;;;;;;;;;14.00;14.00;;;;;16.76;53.00;101616.19;5084216;27;45559;-76
2021/05/28 02:14:28;;;;;;;;;12.00;12.00;;;;;16.74;53.67;101618.06;5080959;27;45481;-77
2021/05/28 02:16:54;;;;;;;;;14.00;12.75;;;;;16.67;53.51;101623.66;5097148;27;49874;-75
2021/05/28 02:19:21;;;;;;;;;16.00;13.50;;;;;16.68;53.64;101623.63;5083982;27;45544;-75
2021/05/28 02:21:47;;;;;;;;;14.50;12.50;;;;;16.67;53.71;101626.34;5083262;27;45631;-75
2021/05/28 02:24:15;;;;;;;;;14.25;14.25;;;;;16.60;53.27;101614.91;5079875;27;48191;-75
2021/05/28 02:26:47;;;;;;;;;14.75;14.75;;;;;16.62;53.95;101630.94;5083077;27;46289;-75
2021/05/28 02:29:15;;;;;;;;;14.25;12.25;;;;;16.60;53.94;101630.13;5086248;27;45445;-75
2021/05/28 02:31:41;;;;;;;;;11.50;11.50;;;;;16.58;53.87;101631.97;5091440;27;45453;-75
2021/05/28 02:34:07;;;;;;;;;15.75;14.50;;;;;16.54;54.16;101633.88;5086254;27;48150;-76
2021/05/28 02:36:33;;;;;;;;;13.75;12.75;;;;;16.52;53.90;101630.38;5083446;27;45910;-75
2021/05/28 02:38:59;;;;;;;;;15.50;15.25;;;;;16.52;53.85;101630.38;5091517;27;45546;-74
2021/05/28 02:41:24;;;;;;;;;16.50;15.25;;;;;16.50;54.04;101632.22;5090360;27;45741;-73
2021/05/28 02:43:50;;;;;;;;;14.75;14.75;;;;;16.50;54.18;101632.22;5087666;27;45571;-74
2021/05/28 02:46:16;;;;;;;;;14.75;14.25;;;;;16.51;54.04;101628.59;5089949;27;45569;-73
2021/05/28 02:48:41;;;;;;;;;17.25;15.75;;;;;16.52;54.17;101627.72;5086250;27;45510;-76
2021/05/28 02:51:07;;;;;;;;;13.75;13.75;;;;;16.52;54.14;101627.72;5095602;27;45309;-76
2021/05/28 02:53:35;;;;;;;;;14.25;13.00;;;;;16.52;53.95;101624.16;5085435;27;45425;-74
2021/05/28 02:56:02;;;;;;;;;16.25;16.25;;;;;16.51;54.03;101633.97;5095030;27;45835;-75
2021/05/28 02:58:28;;;;;;;;;14.25;14.25;;;;;16.53;54.42;101631.25;5081220;27;45882;-75
2021/05/28 03:00:53;;;;;;;;;12.50;12.50;;;;;16.53;54.25;101628.59;5106792;27;45435;-74
2021/05/28 03:03:19;;;;;;;;;13.00;13.00;;;;;16.52;54.49;101624.16;5083583;27;46406;-74
2021/05/28 03:05:44;;;;;;;;;13.75;13.75;;;;;16.50;54.03;101629.53;5083326;27;45290;-73
2021/05/28 03:08:09;;;;;;;;;14.00;14.00;;;;;16.47;54.31;101625.16;5097781;27;45491;-74
2021/05/28 03:10:35;;;;;;;;;16.00;14.50;;;;;16.46;54.44;101623.41;5097212;27;45364;-77
2021/05/28 03:13:00;;;;;;;;;14.50;14.50;;;;;16.40;53.97;101618.25;5097547;27;46869;-73
2021/05/28 03:15:25;;;;;;;;;12.50;12.50;;;;;16.42;54.05;101624.44;5098333;27;45445;-75
2021/05/28 03:17:52;;;;;;;;;13.75;13.50;;;;;16.42;54.26;101626.25;5097346;27;45517;-74
2021/05/28 03:20:26;;;;;;;;;20.75;20.50;;;;;16.39;54.35;101626.34;5094777;27;45530;-74
2021/05/28 03:22:51;;;;;;;;;14.50;14.50;;;;;16.35;54.31;101627.34;5096378;27;45486;-74
2021/05/28 03:25:17;;;;;;;;;13.50;13.50;;;;;16.33;54.85;101626.50;5096434;27;46244;-74
2021/05/28 03:27:44;;;;;;;;;15.75;14.75;;;;;16.29;54.41;101624.88;5104201;27;45539;-75
2021/05/28 03:30:12;;;;;;;;;14.50;14.50;;;;;16.26;54.56;101631.19;5093478;27;45470;-75
2021/05/28 03:32:37;;;;;;;;;19.00;18.00;;;;;16.23;55.09;101622.34;5083917;27;47743;-78
2021/05/28 03:35:05;;;;;;;;;15.25;15.25;;;;;16.24;54.60;101626.78;5097485;27;45374;-75
2021/05/28 03:37:30;;;;;;;;;15.75;15.75;;;;;16.21;55.09;101617.06;5099868;27;45538;-74
2021/05/28 03:39:56;;;;;;;;;16.25;15.75;;;;;16.23;55.02;101627.72;5091717;27;45534;-75
2021/05/28 03:42:21;;;;;;;;;18.75;17.50;;;;;16.19;54.96;101625.13;5094429;27;48817;-75
2021/05/28 03:44:46;;;;;;;;;12.75;12.75;;;;;16.19;54.83;101625.13;5091258;27;45250;-74
2021/05/28 03:47:12;;;;;;;;;14.25;14.25;;;;;16.18;54.88;101620.72;5087368;27;45541;-75
2021/05/28 03:49:39;;;;;;;;;18.50;18.00;;;;;16.14;55.16;101616.38;5093192;27;45537;-74
2021/05/28 03:52:05;;;;;;;;;20.00;17.25;;;;;16.15;55.06;101623.50;5086262;27;46337;-74
2021/05/28 03:54:32;;;;;;;;;19.50;18.25;;;;;16.11;55.35;101616.44;5090904;27;45361;-74
2021/05/28 03:56:57;;;;;;;;;15.75;15.75;;;;;16.09;55.29;101631.69;5108276;27;45528;-74
2021/05/28 03:59:23;;;;;;;;;20.75;17.75;;;;;16.06;55.55;101621.09;5084660;27;45652;-75
2021/05/28 04:01:48;;;;;;;;;17.50;17.50;;;;;16.05;55.45;101622.00;5082823;27;45495;-75
2021/05/28 04:04:13;;;;;;;;;18.50;17.25;;;;;16.03;55.28;101615.81;5083037;27;45711;-75
2021/05/28 04:06:39;;;;;;;;;21.00;18.75;;;;;16.03;55.33;101621.19;5093046;27;45484;-76
2021/05/28 04:09:04;;;;;;;;;22.25;16.50;;;;;16.03;55.28;101623.84;5101986;27;45586;-76
2021/05/28 04:11:30;;;;;;;;;17.50;17.25;;;;;16.00;55.39;101615.00;5082546;27;46338;-74
2021/05/28 04:13:55;;;;;;;;;17.50;16.75;;;;;16.05;55.53;101624.69;5093602;27;45503;-75
2021/05/28 04:16:21;;;;;;;;;17.25;16.00;;;;;16.05;55.49;101624.69;5087395;27;45434;-75
2021/05/28 04:18:46;;;;;;;;;15.25;14.75;;;;;16.05;55.36;101624.69;5092796;27;45537;-74
2021/05/28 04:21:12;;;;;;;;;17.50;17.50;;;;;16.06;55.72;101629.13;5087070;27;47843;-74
2021/05/28 04:23:37;;;;;;;;;16.00;16.00;;;;;16.06;55.57;101628.25;5080084;27;45557;-75
2021/05/28 04:26:03;;;;;;;;;17.50;15.75;;;;;16.03;55.46;101626.53;5086242;27;45502;-76
2021/05/28 04:28:28;;;;;;;;;15.75;13.50;;;;;16.03;55.48;101625.66;5090691;27;45369;-74
2021/05/28 04:30:56;;;;;;;;;15.75;15.25;;;;;16.03;55.55;101634.56;5085231;27;45830;-73
2021/05/28 04:33:21;;;;;;;;;16.75;16.75;;;;;16.03;55.40;101637.25;5092061;27;45353;-73
2021/05/28 04:35:47;;;;;;;;;16.75;16.75;;;;;16.04;55.29;101632.75;5087541;27;45516;-76
2021/05/28 04:38:12;;;;;;;;;20.75;17.75;;;;;16.07;55.37;101640.69;5082146;27;45463;-76
2021/05/28 04:40:37;;;;;;;;;25.25;19.00;;;;;16.09;55.58;101638.84;5102990;27;47725;-75
2021/05/28 04:43:03;;;;;;;;;25.50;22.50;;;;;16.08;55.60;101635.28;5089504;27;45775;-77
2021/05/28 04:45:28;;;;;;;;;18.00;16.00;;;;;16.08;55.61;101643.31;5086159;27;45638;-74
2021/05/28 04:47:54;;;;;;;;;16.50;16.50;;;;;16.08;55.75;101646.00;5086921;27;45378;-76
2021/05/28 04:50:20;;;;;;;;;18.00;18.00;;;;;16.04;55.89;101649.72;5089165;27;47353;-74
2021/05/28 04:52:46;;;;;;;;;21.25;18.50;;;;;16.03;55.80;101652.44;5090566;27;45554;-75
2021/05/28 04:55:13;;;;;;;;;19.50;18.50;;;;;15.97;55.46;101658.81;5083547;27;45830;-77
2021/05/28 04:57:39;;;;;;;;;18.00;17.75;;;;;16.01;55.97;101660.50;5084669;27;45414;-74
2021/05/28 05:00:05;;;;;;;;;22.00;17.75;;;;;16.03;55.75;101660.47;5088907;27;47477;-76
2021/05/28 05:02:31;;;;;;;;;19.75;18.50;;;;;16.02;55.81;101654.22;5082198;27;45593;-77
2021/05/28 05:04:56;;;;;;;;;23.75;22.50;;;;;16.06;55.13;101661.25;5087799;27;45396;-75
2021/05/28 05:07:22;;;;;;;;;17.00;17.00;;;;;16.07;55.23;101663.00;5105577;27;45403;-75
2021/05/28 05:09:47;;;;;;;;;22.50;22.00;;;;;16.05;55.46;101667.53;5089661;27;47472;-75
2021/05/28 05:12:13;;;;;;;;;16.75;15.75;;;;;16.06;55.69;101668.41;5084368;27;45469;-74
2021/05/28 05:14:38;;;;;;;;;20.00;19.50;;;;;16.07;55.65;101670.16;5087370;27;45544;-75
2021/05/28 05:17:03;;;;;;;;;19.00;18.50;;;;;16.07;55.56;101679.06;5089894;27;45520;-75
2021/05/28 05:19:29;;;;;;;;;19.75;17.75;;;;;16.05;55.79;101683.59;5081930;27;45569;-75
2021/05/28 05:21:54;;;;;;;;;19.50;18.75;;;;;16.03;55.38;101682.75;5079501;27;45465;-75
2021/05/28 05:24:20;;;;;;;;;22.75;22.25;;;;;16.03;55.67;101681.88;5090120;27;45491;-75
2021/05/28 05:26:45;;;;;;;;;25.25;23.25;;;;;16.08;55.75;101683.50;5089238;27;45495;-75
2021/05/28 05:29:10;;;;;;;;;20.00;17.50;;;;;16.10;55.64;101692.34;5088321;27;48569;-76
2021/05/28 05:31:39;;;;;;;;;21.50;20.00;;;;;16.14;55.45;101691.38;5105010;27;45469;-76
2021/05/28 05:34:04;;;;;;;;;21.25;21.25;;;;;16.20;55.25;101690.28;5083918;27;45446;-76
2021/05/28 05:36:30;;;;;;;;;27.75;24.25;;;;;16.23;55.47;101692.00;5084761;27;45404;-79
2021/05/28 05:38:55;;;;;;;;;21.50;21.50;;;;;16.22;55.30;101696.47;5082832;27;48532;-76
2021/05/28 05:41:21;;;;;;;;;22.50;20.00;;;;;16.24;55.33;101691.06;5083251;27;46382;-80
2021/05/28 05:43:46;;;;;;;;;18.75;18.75;;;;;16.23;55.35;101694.69;5085081;27;45532;-79
2021/05/28 05:46:12;;;;;;;;;21.75;21.75;;;;;16.26;55.21;101695.47;5090062;27;45555;-78
2021/05/28 05:48:38;;;;;;;;;22.00;21.50;;;;;16.29;55.02;101691.81;5086116;27;48101;-80
2021/05/28 05:51:04;;;;;;;;;19.50;19.00;;;;;16.29;55.21;101686.47;5087539;27;45518;-83
2021/05/28 05:53:29;;;;;;;;;25.00;20.75;;;;;16.31;55.66;101689.97;5084978;27;45836;-81
2021/05/28 05:55:54;;;;;;;;;24.50;23.00;;;;;16.31;54.83;101681.94;5078479;27;45687;-82
2021/05/28 05:58:20;;;;;;;;;21.25;21.25;;;;;16.29;55.54;101691.81;5084995;27;47746;-80
2021/05/28 06:00:45;;;;;;;;;22.25;20.75;;;;;16.27;55.17;101693.69;5093158;27;45301;-81
2021/05/28 06:03:12;;;;;;;;;25.00;22.50;;;;;16.26;55.31;101697.25;5091293;27;45360;-81
2021/05/28 06:05:37;;;;;;;;;24.25;24.00;;;;;16.23;55.48;101686.63;5085825;27;46183;-82
2021/05/28 06:08:04;;;;;;;;;23.00;23.00;;;;;16.24;55.41;101675.00;5089066;27;45624;-78
2021/05/28 06:10:30;;;;;;;;;21.25;21.25;;;;;16.24;55.38;101675.88;5082771;27;45427;-80
2021/05/28 06:13:02;;;;;;;;;24.25;22.25;;;;;16.25;55.65;101674.94;5081182;27;45947;-81
2021/05/28 06:15:27;;;;;;;;;23.75;23.50;;;;;16.24;55.53;101683.91;5083664;27;45594;-82
2021/05/28 06:17:52;;;;;;;;;20.25;20.00;;;;;16.22;55.60;101683.09;5084457;27;47126;-82
2021/05/28 06:20:18;;;;;;;;;17.00;17.00;;;;;16.19;55.62;101680.50;5083390;27;45496;-80
2021/05/28 06:22:46;;;;;;;;;18.25;18.25;;;;;16.23;55.68;101681.28;5084547;27;45897;-81
2021/05/28 06:25:12;;;;;;;;;22.00;18.25;;;;;16.22;55.74;101690.25;5084013;27;45409;-80
2021/05/28 06:27:37;;;;;;;;;21.50;21.50;;;;;16.19;55.37;101686.75;5092109;27;48270;-81
2021/05/28 06:30:03;;;;;;;;;20.50;19.75;;;;;16.22;55.50;101687.56;5087354;27;46094;-82
2021/05/28 06:32:28;;;;;;;;;22.50;17.75;;;;;16.21;55.72;101685.81;5085367;27;45545;-81
2021/05/28 06:34:54;;;;;;;;;23.50;20.00;;;;;16.18;55.96;101678.75;5076710;27;45618;-81
2021/05/28 06:37:19;;;;;;;;;20.25;19.50;;;;;16.18;55.66;101681.44;5093315;27;48530;-82
2021/05/28 06:39:44;;;;;;;;;17.25;17.25;;;;;16.18;56.17;101673.41;5090065;27;45438;-75
2021/05/28 06:42:10;;;;;;;;;26.25;23.75;;;;;16.18;55.74;101674.28;5089449;27;45381;-79
2021/05/28 06:44:35;;;;;;;;;25.25;23.25;;;;;16.21;56.13;101670.63;5089699;27;45637;-80
2021/05/28 06:47:01;;;;;;;;;16.50;16.00;;;;;16.29;56.05;101671.28;5083066;27;47354;-81
2021/05/28 06:49:26;;;;;;;;;18.50;16.00;;;;;16.39;55.90;101667.41;5086694;27;46392;-80
2021/05/28 06:51:52;;;;;;;;;17.50;16.75;;;;;16.48;56.25;101669.78;5092616;27;45577;-78
2021/05/28 06:54:17;;;;;;;;;17.25;17.25;;;;;16.55;55.59;101667.78;5083422;27;45366;-81
2021/05/28 06:56:43;;;;;;;;;20.00;18.00;;;;;16.60;55.95;101671.19;5089141;27;47617;-76
2021/05/28 06:59:09;;;;;;;;;25.00;23.00;;;;;16.70;55.50;101678.06;5089928;27;45515;-80
2021/05/28 07:01:35;;;;;;;;;20.25;19.75;;;;;16.78;55.34;101680.50;5079723;27;45491;-80
2021/05/28 07:04:02;;;;;;;;;20.25;20.25;;;;;16.84;54.91;101680.28;5090014;27;45855;-79
2021/05/28 07:06:29;;;;;;;;;20.25;19.50;;;;;16.93;54.78;101692.53;5082348;27;45725;-79
2021/05/28 07:08:55;;;;;;;;;17.00;14.00;;;;;17.00;55.12;101689.59;5086161;27;46189;-78
2021/05/28 07:11:21;;;;;;;;;16.25;16.25;;;;;17.04;54.86;101687.72;5094430;27;45459;-81
2021/05/28 07:13:47;;;;;;;;;16.50;16.00;;;;;17.06;54.35;101677.81;5088183;27;45620;-81
2021/05/28 07:16:12;;;;;;;;;21.25;18.50;;;;;17.11;54.55;101677.63;5082251;27;46245;-76
2021/05/28 07:18:38;;;;;;;;;22.00;20.00;;;;;17.11;54.56;101683.88;5072981;27;45809;-81
2021/05/28 07:21:04;;;;;;;;;17.25;16.50;;;;;17.12;54.49;101682.94;5089693;27;45380;-77
2021/05/28 07:23:29;;;;;;;;;18.00;18.00;;;;;17.14;54.46;101685.56;5078372;27;45618;-76
2021/05/28 07:25:59;;;;;;;;;21.00;20.00;;;;;17.16;54.49;101683.75;5091941;27;47566;-78
2021/05/28 07:28:24;;;;;;;;;20.50;19.25;;;;;17.17;53.85;101677.44;5076227;27;45535;-83
2021/05/28 07:30:49;;;;;;;;;15.25;14.75;;;;;17.22;53.76;101675.47;5092250;27;45416;-78
2021/05/28 07:33:15;;;;;;;;;15.00;15.00;;;;;17.26;53.34;101677.97;5086889;27;45529;-78
2021/05/28 07:35:40;;;;;;;;;19.00;18.00;;;;;17.32;53.16;101667.06;5088325;27;46203;-79
2021/05/28 07:38:06;;;;;;;;;16.25;15.00;;;;;17.38;53.66;101670.44;5088434;27;45484;-76
2021/05/28 07:40:31;;;;;;;;;15.75;15.75;;;;;17.45;53.40;101667.50;5086811;27;45421;-77
2021/05/28 07:42:57;;;;;;;;;21.50;20.75;;;;;17.50;52.92;101670.03;5088350;27;45423;-80
2021/05/28 07:45:22;;;;;;;;;16.50;15.00;;;;;17.54;52.86;101664.50;5085416;27;47475;-80
2021/05/28 07:47:48;;;;;;;;;15.00;13.25;;;;;17.60;52.48;101663.41;5087856;27;46196;-77
2021/05/28 07:50:13;;;;;;;;;20.00;17.25;;;;;17.63;52.38;101663.28;5087235;27;45487;-82
2021/05/28 07:52:39;;;;;;;;;18.00;15.25;;;;;17.67;52.41;101650.66;5079265;27;45529;-78
2021/05/28 07:55:04;;;;;;;;;18.50;16.50;;;;;17.65;52.45;101651.56;5087807;27;46016;-77
2021/05/28 07:57:30;;;;;;;;;14.00;13.25;;;;;17.69;52.10;101646.13;5089743;27;46055;-79
2021/05/28 07:59:55;;;;;;;;;16.50;13.75;;;;;17.71;52.17;101642.44;5085679;27;46085;-78
2021/05/28 08:02:21;;;;;;;;;14.75;13.00;;;;;17.75;51.76;101638.72;5084290;27;45613;-78
2021/05/28 08:04:46;;;;;;;;;13.50;13.00;;;;;17.79;51.70;101643.06;5085803;27;48866;-78
2021/05/28 08:07:12;;;;;;;;;13.00;11.75;;;;;17.82;51.30;101639.38;5078832;27;45309;-77
2021/05/28 08:09:37;;;;;;;;;17.25;15.75;;;;;17.91;51.38;101642.59;5088386;27;45654;-79
2021/05/28 08:12:03;;;;;;;;;14.00;13.25;;;;;17.97;51.32;101648.66;5091208;27;45632;-79
2021/05/28 08:14:29;;;;;;;;;10.75;10.75;;;;;17.99;51.13;101644.97;5095518;27;45534;-78
2021/05/28 08:16:54;;;;;;;;;11.75;10.25;;;;;18.05;51.03;101643.91;5085209;27;45751;-77
2021/05/28 08:19:20;;;;;;;;;10.00;10.00;;;;;18.08;50.21;101631.22;5097270;27;45600;-77
2021/05/28 08:21:45;;;;;;;;;10.75;10.25;;;;;18.17;50.25;101638.94;5086686;27;45657;-79
2021/05/28 08:24:11;;;;;;;;;7.75;7.75;;;;;18.23;49.44;101636.00;5086578;27;45362;-76
2021/05/28 08:26:36;;;;;;;;;7.50;7.50;;;;;18.32;49.37;101639.25;5086371;27;45385;-79
2021/05/28 08:29:03;;;;;;;;;8.75;8.00;;;;;18.37;49.51;101646.19;5093227;27;45561;-78
2021/05/28 08:31:29;;;;;;;;;11.00;11.00;;;;;18.39;48.82;101632.69;5086974;27;45459;-77
2021/05/28 08:33:55;;;;;;;;;9.75;8.25;;;;;18.47;49.15;101639.53;5078371;27;48583;-75
2021/05/28 08:36:21;;;;;;;;;8.00;7.50;;;;;18.54;48.74;101638.31;5086739;27;45314;-76
2021/05/28 08:38:46;;;;;;;;;9.25;8.50;;;;;18.62;48.87;101631.78;5093966;27;45436;-76
2021/05/28 08:41:14;;;;;;;;;8.75;8.75;;;;;18.69;48.63;101636.00;5087410;27;45422;-77
2021/05/28 08:43:43;;;;;;;;;6.50;6.00;;;;;18.72;49.84;101635.88;5086735;27;47101;-77
2021/05/28 08:46:11;;;;;;;;;9.50;8.75;;;;;18.96;48.08;101629.50;5083639;27;45538;-76
2021/05/28 08:48:37;;;;;;;;;9.25;8.00;;;;;19.19;47.58;101631.22;5092504;27;45474;-79
2021/05/28 08:51:02;;;;;;;;;5.50;5.50;;;;;19.35;47.25;101631.41;5075528;27;45542;-76
2021/05/28 08:53:28;;;;;;;;;6.50;6.50;;;;;19.45;46.67;101630.06;5076688;27;45380;-76
2021/05/28 08:55:54;;;;;;;;;8.75;8.75;;;;;19.50;46.31;101617.28;5088557;27;45554;-75
2021/05/28 08:58:20;;;;;;;;;8.75;8.75;;;;;19.55;45.93;101620.66;5085176;27;45609;-76
2021/05/28 09:00:47;;;;;;;;;6.25;6.25;;;;;19.59;46.17;101607.94;5076598;27;45414;-77
2021/05/28 09:03:34;;;;;;;;;7.75;7.75;;;;;19.62;46.13;101608.69;5084867;27;47717;-74
2021/05/28 09:06:02;;;;;;;;;9.00;9.00;;;;;19.63;45.52;101615.81;5089621;27;45412;-74
2021/05/28 09:08:30;;;;;;;;;10.75;9.25;;;;;19.64;45.59;101622.94;5079242;27;45586;-75
2021/05/28 09:11:03;;;;;;;;;9.50;9.50;;;;;19.64;45.61;101614.88;5084376;27;45608;-76
2021/05/28 09:13:28;;;;;;;;;9.50;9.00;;;;;19.65;45.82;101611.22;5089921;27;48799;-76
2021/05/28 09:16:14;;;;;;;;;8.00;7.25;;;;;19.67;45.97;101612.03;5079967;27;45377;-76
2021/05/28 09:18:47;;;;;;;;;7.50;7.50;;;;;19.68;45.75;101611.09;5086766;27;45313;-76
2021/05/28 09:21:19;;;;;;;;;8.75;7.00;;;;;19.71;45.87;101615.47;5090017;27;45558;-78
2021/05/28 09:23:44;;;;;;;;;10.00;10.00;;;;;19.75;45.89;101621.59;5081955;27;46486;-78
2021/05/28 09:26:10;;;;;;;;;10.25;10.25;;;;;19.75;45.62;101617.06;5089244;27;46387;-77
2021/05/28 09:28:48;;;;;;;;;9.00;9.00;;;;;19.75;46.25;101606.31;5083951;27;45413;-80
2021/05/28 09:31:19;;;;;;;;;8.75;8.00;;;;;19.77;45.65;101615.19;5092460;27;45455;-80
2021/05/28 09:33:47;;;;;;;;;8.50;8.50;;;;;19.77;45.15;101612.50;5087102;27;46150;-83
2021/05/28 09:36:17;;;;;;;;;9.00;8.75;;;;;19.78;45.72;101613.38;5084324;27;45553;-88
2021/05/28 09:39:13;;;;;;;;;12.25;12.25;;;;;19.77;45.69;101592.75;5091626;27;45424;-82
2021/05/28 09:41:47;;;;;;;;;8.00;8.00;;;;;19.79;45.35;101601.66;5087026;27;45736;-79
2021/05/28 09:44:30;;;;;;;;;6.75;6.75;;;;;19.76;45.37;101599.09;5086268;27;46321;-80
2021/05/28 09:47:17;;;;;;;;;8.50;7.75;;;;;19.75;45.04;101603.63;5090576;27;45501;-85
2021/05/28 09:49:54;;;;;;;;;6.75;6.50;;;;;19.77;44.45;101598.16;5079773;27;45491;-79
2021/05/28 09:52:25;;;;;;;;;6.00;5.50;;;;;19.77;44.54;101592.75;5100371;27;45310;-79
2021/05/28 09:55:09;;;;;;;;;5.50;5.50;;;;;19.75;44.40;101595.53;5084495;27;45472;-78
2021/05/28 09:57:39;;;;;;;;;6.00;6.00;;;;;19.80;44.21;101596.19;5090978;27;45531;-78
2021/05/28 10:00:05;;;;;;;;;5.00;5.00;;;;;19.84;43.43;101588.84;5090787;27;45551;-77
2021/05/28 10:02:34;;;;;;;;;5.00;4.75;;;;;19.89;43.62;101590.38;5089405;27;45506;-78
2021/05/28 10:05:00;;;;;;;;;6.00;6.00;;;;;19.97;43.36;101584.66;5084836;27;47824;-77
2021/05/28 10:07:28;;;;;;;;;5.00;5.00;;;;;20.04;43.32;101586.09;5081026;27;45492;-78
2021/05/28 10:09:55;;;;;;;;;5.00;5.00;;;;;20.11;43.63;101582.16;5086171;27;45641;-75
2021/05/28 10:12:26;;;;;;;;;4.00;4.00;;;;;20.19;43.38;101585.34;5085764;27;45661;-82
2021/05/28 10:14:52;;;;;;;;;4.00;4.00;;;;;20.24;42.87;101591.41;5089320;27;45576;-78
2021/05/28 10:17:19;;;;;;;;;3.50;3.50;;;;;20.28;43.36;101586.75;5090599;27;45347;-73
2021/05/28 10:19:46;;;;;;;;;4.75;4.75;;;;;20.34;43.04;101581.06;5087100;27;45506;-73
2021/05/28 10:22:13;;;;;;;;;5.33;4.67;;;;;20.35;42.47;101580.13;5087912;27;45969;-79
2021/05/28 10:24:38;;;;;;;;;3.75;3.50;;;;;20.36;41.71;101587.25;5092138;27;48388;-74
2021/05/28 10:27:05;;;;;;;;;4.00;4.00;;;;;20.34;42.52;101572.97;5089279;27;45462;-83
2021/05/28 10:29:31;;;;;;;;;3.00;3.00;;;;;20.38;41.83;101576.38;5083207;27;45390;-76
2021/05/28 10:31:57;;;;;;;;;4.25;4.25;;;;;20.39;41.94;101572.75;5082648;27;45539;-82
2021/05/28 10:34:25;;;;;;;;;3.50;3.50;;;;;20.41;42.04;101576.22;5082990;27;47112;-80
2021/05/28 10:36:51;;;;;;;;;11.00;6.75;;;;;20.42;42.11;101569.91;5076808;27;45374;-80
2021/05/28 10:39:18;;;;;;;;;5.50;4.75;;;;;20.45;42.25;101575.16;5084210;27;45465;-78
2021/05/28 10:41:51;;;;;;;;;5.50;5.50;;;;;20.46;41.53;101571.53;5087898;27;45679;-81
2021/05/28 10:44:23;;;;;;;;;6.25;5.50;;;;;20.44;42.05;101565.31;5086494;27;48648;-77
2021/05/28 10:46:54;;;;;;;;;6.75;5.75;;;;;20.45;42.24;101570.63;5083087;27;45493;-81
2021/05/28 10:49:35;;;;;;;;;6.00;6.00;;;;;20.48;41.64;101564.25;5086435;27;45371;-84
2021/05/28 10:52:03;;;;;;;;;4.50;4.50;;;;;20.46;42.38;101563.44;5079812;27;45613;-81
2021/05/28 10:54:31;;;;;;;;;6.00;6.00;;;;;20.47;42.29;101563.38;5084110;27;47011;-78
2021/05/28 10:57:16;;;;;;;;;5.50;5.50;;;;;20.48;42.14;101561.53;5083991;27;45540;-78
2021/05/28 10:59:47;;;;;;;;;4.75;4.75;;;;;20.49;41.86;101576.78;5082115;27;45588;-78
2021/05/28 11:02:15;;;;;;;;;5.00;5.00;;;;;20.48;41.86;101562.41;5082304;27;45321;-76
2021/05/28 11:04:41;;;;;;;;;5.00;5.00;;;;;20.50;42.12;101570.44;5089956;27;47727;-77
2021/05/28 11:07:10;;;;;;;;;3.00;3.00;;;;;20.51;42.01;101572.19;5089440;27;45634;-75
2021/05/28 11:09:50;;;;;;;;;3.00;3.00;;;;;20.50;41.19;101571.31;5092417;27;45385;-77